sensor_id;sensor_type;location;lat;lon;timestamp;temperature;humidity
21612;DHT22;47005;52.292;13.452;2023-02-16T00:00:58;4.90;99.90
21612;DHT22;47005;52.292;13.452;2023-02-16T00:03:24;4.90;99.90
21612;DHT22;47005;52.292;13.452;2023-02-16T00:05:50;4.90;99.90
21612;DHT22;47005;52.292;13.452;2023-02-16T00:08:15;4.80;99.90
21612;DHT22;47005;52.292;13.452;2023-02-16T00:10:41;4.90;99.90
21612;DHT22;47005;52.292;13.452;2023-02-16T00:13:28;4.80;99.90
21612;DHT22;47005;52.292;13.452;2023-02-16T00:16:17;4.80;99.90
21612;DHT22;47005;52.292;13.452;2023-02-16T00:18:43;4.80;99.90
21612;DHT22;47005;52.292;13.452;2023-02-16T00:21:09;4.80;99.90
21612;DHT22;47005;52.292;13.452;2023-02-16T00:23:34;4.80;99.90
21612;DHT22;47005;52.292;13.452;2023-02-16T00:26:00;4.80;99.90
21612;DHT22;47005;52.292;13.452;2023-02-16T00:28:26;4.80;99.90
21612;DHT22;47005;52.292;13.452;2023-02-16T00:30:52;4.70;99.90
21612;DHT22;47005;52.292;13.452;2023-02-16T00:33:19;4.70;99.90
21612;DHT22;47005;52.292;13.452;2023-02-16T00:35:46;4.70;99.90
21612;DHT22;47005;52.292;13.452;2023-02-16T00:38:12;4.70;99.90
21612;DHT22;47005;52.292;13.452;2023-02-16T00:40:39;4.70;99.90
21612;DHT22;47005;52.292;13.452;2023-02-16T00:43:05;4.70;99.90
21612;DHT22;47005;52.292;13.452;2023-02-16T00:45:36;4.70;99.90
21612;DHT22;47005;52.292;13.452;2023-02-16T00:48:02;4.70;99.90
21612;DHT22;47005;52.292;13.452;2023-02-16T00:50:29;4.70;99.90
21612;DHT22;47005;52.292;13.452;2023-02-16T00:52:55;4.60;99.90
21612;DHT22;47005;52.292;13.452;2023-02-16T00:55:28;4.60;99.90
21612;DHT22;47005;52.292;13.452;2023-02-16T01:00:28;4.60;99.90
21612;DHT22;47005;52.292;13.452;2023-02-16T01:02:59;4.60;99.90
21612;DHT22;47005;52.292;13.452;2023-02-16T01:05:26;4.60;99.90
21612;DHT22;47005;52.292;13.452;2023-02-16T01:07:52;4.60;99.90
21612;DHT22;47005;52.292;13.452;2023-02-16T01:10:37;4.60;99.90
21612;DHT22;47005;52.292;13.452;2023-02-16T01:13:45;4.60;99.90
21612;DHT22;47005;52.292;13.452;2023-02-16T01:16:15;4.60;99.90
21612;DHT22;47005;52.292;13.452;2023-02-16T01:18:41;4.60;99.90
21612;DHT22;47005;52.292;13.452;2023-02-16T01:21:07;4.60;99.90
21612;DHT22;47005;52.292;13.452;2023-02-16T01:23:32;4.50;99.90
21612;DHT22;47005;52.292;13.452;2023-02-16T01:25:58;4.60;99.90
21612;DHT22;47005;52.292;13.452;2023-02-16T01:28:24;4.50;99.90
21612;DHT22;47005;52.292;13.452;2023-02-16T01:30:51;4.60;99.90
21612;DHT22;47005;52.292;13.452;2023-02-16T01:33:18;4.50;99.90
21612;DHT22;47005;52.292;13.452;2023-02-16T01:35:44;4.50;99.90
21612;DHT22;47005;52.292;13.452;2023-02-16T01:38:21;4.50;99.90
21612;DHT22;47005;52.292;13.452;2023-02-16T01:43:44;4.50;99.90
21612;DHT22;47005;52.292;13.452;2023-02-16T01:46:15;4.50;99.90
21612;DHT22;47005;52.292;13.452;2023-02-16T01:48:41;4.50;99.90
21612;DHT22;47005;52.292;13.452;2023-02-16T01:51:24;4.40;99.90
21612;DHT22;47005;52.292;13.452;2023-02-16T01:56:55;4.40;99.90
21612;DHT22;47005;52.292;13.452;2023-02-16T02:02:32;4.40;99.90
21612;DHT22;47005;52.292;13.452;2023-02-16T02:05:23;4.40;99.90
21612;DHT22;47005;52.292;13.452;2023-02-16T02:11:56;4.40;99.90
21612;DHT22;47005;52.292;13.452;2023-02-16T02:14:25;4.30;99.90
21612;DHT22;47005;52.292;13.452;2023-02-16T02:17:04;4.30;99.90
21612;DHT22;47005;52.292;13.452;2023-02-16T02:20:20;4.30;99.90
21612;DHT22;47005;52.292;13.452;2023-02-16T02:31:36;4.20;99.90
21612;DHT22;47005;52.292;13.452;2023-02-16T02:42:32;4.20;99.90
21612;DHT22;47005;52.292;13.452;2023-02-16T02:45:13;4.20;99.90
21612;DHT22;47005;52.292;13.452;2023-02-16T02:47:45;4.10;99.90
21612;DHT22;47005;52.292;13.452;2023-02-16T02:52:57;4.10;99.90
21612;DHT22;47005;52.292;13.452;2023-02-16T02:55:25;4.10;99.90
21612;DHT22;47005;52.292;13.452;2023-02-16T02:58:12;4.10;99.90
21612;DHT22;47005;52.292;13.452;2023-02-16T03:00:56;4.10;99.90
21612;DHT22;47005;52.292;13.452;2023-02-16T03:06:25;4.10;99.90
21612;DHT22;47005;52.292;13.452;2023-02-16T03:08:59;4.10;99.90
21612;DHT22;47005;52.292;13.452;2023-02-16T03:11:27;4.10;99.90
21612;DHT22;47005;52.292;13.452;2023-02-16T03:16:44;4.10;99.90
21612;DHT22;47005;52.292;13.452;2023-02-16T03:19:12;4.00;99.90
21612;DHT22;47005;52.292;13.452;2023-02-16T03:21:58;4.00;99.90
21612;DHT22;47005;52.292;13.452;2023-02-16T03:24:43;4.00;99.90
21612;DHT22;47005;52.292;13.452;2023-02-16T03:27:30;4.00;99.90
21612;DHT22;47005;52.292;13.452;2023-02-16T03:30:16;4.00;99.90
21612;DHT22;47005;52.292;13.452;2023-02-16T03:32:43;4.00;99.90
21612;DHT22;47005;52.292;13.452;2023-02-16T03:35:09;4.00;99.90
21612;DHT22;47005;52.292;13.452;2023-02-16T03:37:38;4.00;99.90
21612;DHT22;47005;52.292;13.452;2023-02-16T03:40:07;4.00;99.90
21612;DHT22;47005;52.292;13.452;2023-02-16T03:42:52;3.90;99.90
21612;DHT22;47005;52.292;13.452;2023-02-16T03:45:19;3.90;99.90
21612;DHT22;47005;52.292;13.452;2023-02-16T03:47:45;4.00;99.90
21612;DHT22;47005;52.292;13.452;2023-02-16T03:50:11;3.90;99.90
21612;DHT22;47005;52.292;13.452;2023-02-16T03:52:36;3.90;99.90
21612;DHT22;47005;52.292;13.452;2023-02-16T03:55:02;3.90;99.90
21612;DHT22;47005;52.292;13.452;2023-02-16T03:57:28;3.90;99.90
21612;DHT22;47005;52.292;13.452;2023-02-16T03:59:53;3.90;99.90
21612;DHT22;47005;52.292;13.452;2023-02-16T04:02:19;3.90;99.90
21612;DHT22;47005;52.292;13.452;2023-02-16T04:04:45;3.90;99.90
21612;DHT22;47005;52.292;13.452;2023-02-16T04:07:11;3.90;99.90
21612;DHT22;47005;52.292;13.452;2023-02-16T04:09:36;3.90;99.90
21612;DHT22;47005;52.292;13.452;2023-02-16T04:12:02;3.90;99.90
21612;DHT22;47005;52.292;13.452;2023-02-16T04:14:47;3.80;99.90
21612;DHT22;47005;52.292;13.452;2023-02-16T04:17:12;3.90;99.90
21612;DHT22;47005;52.292;13.452;2023-02-16T04:19:38;3.90;99.90
21612;DHT22;47005;52.292;13.452;2023-02-16T04:22:03;3.80;99.90
21612;DHT22;47005;52.292;13.452;2023-02-16T04:24:29;3.80;99.90
21612;DHT22;47005;52.292;13.452;2023-02-16T04:26:55;3.80;99.90
21612;DHT22;47005;52.292;13.452;2023-02-16T04:29:20;3.80;99.90
21612;DHT22;47005;52.292;13.452;2023-02-16T04:31:46;3.80;99.90
21612;DHT22;47005;52.292;13.452;2023-02-16T04:34:11;3.80;99.90
21612;DHT22;47005;52.292;13.452;2023-02-16T04:36:37;3.80;99.90
21612;DHT22;47005;52.292;13.452;2023-02-16T04:39:03;3.80;99.90
21612;DHT22;47005;52.292;13.452;2023-02-16T04:41:29;3.80;99.90
21612;DHT22;47005;52.292;13.452;2023-02-16T04:43:54;3.70;99.90
21612;DHT22;47005;52.292;13.452;2023-02-16T04:46:20;3.80;99.90
21612;DHT22;47005;52.292;13.452;2023-02-16T04:48:46;3.70;99.90
21612;DHT22;47005;52.292;13.452;2023-02-16T04:51:11;3.70;99.90
21612;DHT22;47005;52.292;13.452;2023-02-16T04:53:37;3.70;99.90
21612;DHT22;47005;52.292;13.452;2023-02-16T04:56:03;3.70;99.90
21612;DHT22;47005;52.292;13.452;2023-02-16T04:58:29;3.70;99.90
21612;DHT22;47005;52.292;13.452;2023-02-16T05:00:54;3.70;99.90
21612;DHT22;47005;52.292;13.452;2023-02-16T05:03:20;3.70;99.90
21612;DHT22;47005;52.292;13.452;2023-02-16T05:05:45;3.70;99.90
21612;DHT22;47005;52.292;13.452;2023-02-16T05:08:11;3.70;99.90
21612;DHT22;47005;52.292;13.452;2023-02-16T05:10:37;3.70;99.90
21612;DHT22;47005;52.292;13.452;2023-02-16T05:13:02;3.70;99.90
21612;DHT22;47005;52.292;13.452;2023-02-16T05:15:46;3.70;99.90
21612;DHT22;47005;52.292;13.452;2023-02-16T05:18:12;3.70;99.90
21612;DHT22;47005;52.292;13.452;2023-02-16T05:20:38;3.70;99.90
21612;DHT22;47005;52.292;13.452;2023-02-16T05:23:22;3.70;99.90
21612;DHT22;47005;52.292;13.452;2023-02-16T05:25:47;3.70;99.90
21612;DHT22;47005;52.292;13.452;2023-02-16T05:28:13;3.70;99.90
21612;DHT22;47005;52.292;13.452;2023-02-16T05:30:39;3.60;99.90
21612;DHT22;47005;52.292;13.452;2023-02-16T05:33:04;3.70;99.90
21612;DHT22;47005;52.292;13.452;2023-02-16T05:35:30;3.70;99.90
21612;DHT22;47005;52.292;13.452;2023-02-16T05:37:57;3.70;99.90
21612;DHT22;47005;52.292;13.452;2023-02-16T05:40:22;3.60;99.90
21612;DHT22;47005;52.292;13.452;2023-02-16T05:42:52;3.60;99.90
21612;DHT22;47005;52.292;13.452;2023-02-16T05:45:18;3.60;99.90
21612;DHT22;47005;52.292;13.452;2023-02-16T05:47:43;3.60;99.90
21612;DHT22;47005;52.292;13.452;2023-02-16T05:50:09;3.60;99.90
21612;DHT22;47005;52.292;13.452;2023-02-16T05:52:35;3.60;99.90
21612;DHT22;47005;52.292;13.452;2023-02-16T05:55:01;3.60;99.90
21612;DHT22;47005;52.292;13.452;2023-02-16T05:57:26;3.50;99.90
21612;DHT22;47005;52.292;13.452;2023-02-16T05:59:52;3.50;99.90
21612;DHT22;47005;52.292;13.452;2023-02-16T06:02:17;3.50;99.90
21612;DHT22;47005;52.292;13.452;2023-02-16T06:04:43;3.50;99.90
21612;DHT22;47005;52.292;13.452;2023-02-16T06:07:08;3.50;99.90
21612;DHT22;47005;52.292;13.452;2023-02-16T06:09:34;3.50;99.90
21612;DHT22;47005;52.292;13.452;2023-02-16T06:12:00;3.50;99.90
21612;DHT22;47005;52.292;13.452;2023-02-16T06:14:25;3.40;99.90
21612;DHT22;47005;52.292;13.452;2023-02-16T06:16:51;3.40;99.90
21612;DHT22;47005;52.292;13.452;2023-02-16T06:19:18;3.40;99.90
21612;DHT22;47005;52.292;13.452;2023-02-16T06:21:44;3.40;99.90
21612;DHT22;47005;52.292;13.452;2023-02-16T06:24:11;3.40;99.90
21612;DHT22;47005;52.292;13.452;2023-02-16T06:26:37;3.40;99.90
21612;DHT22;47005;52.292;13.452;2023-02-16T06:29:04;3.40;99.90
21612;DHT22;47005;52.292;13.452;2023-02-16T06:31:29;3.40;99.90
21612;DHT22;47005;52.292;13.452;2023-02-16T06:33:55;3.40;99.90
21612;DHT22;47005;52.292;13.452;2023-02-16T06:36:22;3.40;99.90
21612;DHT22;47005;52.292;13.452;2023-02-16T06:38:48;3.40;99.90
21612;DHT22;47005;52.292;13.452;2023-02-16T06:41:14;3.40;99.90
21612;DHT22;47005;52.292;13.452;2023-02-16T06:43:59;3.40;99.90
21612;DHT22;47005;52.292;13.452;2023-02-16T06:46:25;3.40;99.90
21612;DHT22;47005;52.292;13.452;2023-02-16T06:48:51;3.40;99.90
21612;DHT22;47005;52.292;13.452;2023-02-16T06:51:17;3.40;99.90
21612;DHT22;47005;52.292;13.452;2023-02-16T06:53:43;3.40;99.90
21612;DHT22;47005;52.292;13.452;2023-02-16T06:56:09;3.40;99.90
21612;DHT22;47005;52.292;13.452;2023-02-16T06:58:34;3.30;99.90
21612;DHT22;47005;52.292;13.452;2023-02-16T07:01:00;3.40;99.90
21612;DHT22;47005;52.292;13.452;2023-02-16T07:03:25;3.40;99.90
21612;DHT22;47005;52.292;13.452;2023-02-16T07:05:51;3.40;99.90
21612;DHT22;47005;52.292;13.452;2023-02-16T07:08:17;3.40;99.90
21612;DHT22;47005;52.292;13.452;2023-02-16T07:10:44;3.50;99.90
21612;DHT22;47005;52.292;13.452;2023-02-16T07:13:10;3.40;99.90
21612;DHT22;47005;52.292;13.452;2023-02-16T07:15:36;3.50;99.90
21612;DHT22;47005;52.292;13.452;2023-02-16T07:18:02;3.50;99.90
21612;DHT22;47005;52.292;13.452;2023-02-16T07:20:27;3.50;99.90
21612;DHT22;47005;52.292;13.452;2023-02-16T07:22:53;3.50;99.90
21612;DHT22;47005;52.292;13.452;2023-02-16T07:25:19;3.60;99.90
21612;DHT22;47005;52.292;13.452;2023-02-16T07:27:44;3.60;99.90
21612;DHT22;47005;52.292;13.452;2023-02-16T07:30:10;3.60;99.90
21612;DHT22;47005;52.292;13.452;2023-02-16T07:32:36;3.60;99.90
21612;DHT22;47005;52.292;13.452;2023-02-16T07:35:03;3.60;99.90
21612;DHT22;47005;52.292;13.452;2023-02-16T07:37:29;3.60;99.90
21612;DHT22;47005;52.292;13.452;2023-02-16T07:39:55;3.70;99.90
21612;DHT22;47005;52.292;13.452;2023-02-16T07:42:21;3.70;99.90
21612;DHT22;47005;52.292;13.452;2023-02-16T07:44:46;3.80;99.90
21612;DHT22;47005;52.292;13.452;2023-02-16T07:47:12;3.80;99.90
21612;DHT22;47005;52.292;13.452;2023-02-16T07:49:39;3.80;99.90
21612;DHT22;47005;52.292;13.452;2023-02-16T07:52:05;3.80;99.90
21612;DHT22;47005;52.292;13.452;2023-02-16T07:54:31;3.90;99.90
21612;DHT22;47005;52.292;13.452;2023-02-16T07:56:57;3.90;99.90
21612;DHT22;47005;52.292;13.452;2023-02-16T07:59:38;3.90;99.90
21612;DHT22;47005;52.292;13.452;2023-02-16T08:02:03;3.90;99.90
21612;DHT22;47005;52.292;13.452;2023-02-16T08:04:29;4.10;99.90
21612;DHT22;47005;52.292;13.452;2023-02-16T08:06:55;4.00;99.90
21612;DHT22;47005;52.292;13.452;2023-02-16T08:09:20;3.90;99.90
21612;DHT22;47005;52.292;13.452;2023-02-16T08:11:46;4.00;99.90
21612;DHT22;47005;52.292;13.452;2023-02-16T08:14:11;4.10;99.90
21612;DHT22;47005;52.292;13.452;2023-02-16T08:16:38;4.10;99.90
21612;DHT22;47005;52.292;13.452;2023-02-16T08:19:04;4.10;99.90
21612;DHT22;47005;52.292;13.452;2023-02-16T08:21:32;4.20;99.90
21612;DHT22;47005;52.292;13.452;2023-02-16T08:24:03;4.20;99.90
21612;DHT22;47005;52.292;13.452;2023-02-16T08:26:38;4.20;99.90
21612;DHT22;47005;52.292;13.452;2023-02-16T08:29:05;4.20;99.90
21612;DHT22;47005;52.292;13.452;2023-02-16T08:31:34;4.30;99.90
21612;DHT22;47005;52.292;13.452;2023-02-16T08:34:01;4.30;99.90
21612;DHT22;47005;52.292;13.452;2023-02-16T08:36:32;4.40;99.90
21612;DHT22;47005;52.292;13.452;2023-02-16T08:38:59;4.40;99.90
21612;DHT22;47005;52.292;13.452;2023-02-16T08:41:32;4.40;99.90
21612;DHT22;47005;52.292;13.452;2023-02-16T08:43:59;4.40;99.90
21612;DHT22;47005;52.292;13.452;2023-02-16T08:46:27;4.40;99.90
21612;DHT22;47005;52.292;13.452;2023-02-16T08:48:54;4.50;99.90
21612;DHT22;47005;52.292;13.452;2023-02-16T08:51:22;4.40;99.90
21612;DHT22;47005;52.292;13.452;2023-02-16T08:53:49;4.50;99.90
21612;DHT22;47005;52.292;13.452;2023-02-16T08:56:17;4.50;99.90
21612;DHT22;47005;52.292;13.452;2023-02-16T08:58:43;4.60;99.90
21612;DHT22;47005;52.292;13.452;2023-02-16T09:01:09;4.60;99.90
21612;DHT22;47005;52.292;13.452;2023-02-16T09:03:37;4.60;99.90
21612;DHT22;47005;52.292;13.452;2023-02-16T09:06:04;4.60;99.90
21612;DHT22;47005;52.292;13.452;2023-02-16T09:08:31;4.70;99.90
21612;DHT22;47005;52.292;13.452;2023-02-16T09:11:03;4.70;99.90
21612;DHT22;47005;52.292;13.452;2023-02-16T09:13:29;4.70;99.90
21612;DHT22;47005;52.292;13.452;2023-02-16T09:16:01;4.80;99.90
21612;DHT22;47005;52.292;13.452;2023-02-16T09:18:26;4.80;99.90
21612;DHT22;47005;52.292;13.452;2023-02-16T09:20:52;4.90;99.90
21612;DHT22;47005;52.292;13.452;2023-02-16T09:23:18;4.90;99.90
21612;DHT22;47005;52.292;13.452;2023-02-16T09:25:44;5.00;99.90
21612;DHT22;47005;52.292;13.452;2023-02-16T09:28:10;5.00;99.90
21612;DHT22;47005;52.292;13.452;2023-02-16T09:30:39;5.10;99.90
21612;DHT22;47005;52.292;13.452;2023-02-16T09:33:04;5.10;99.90
21612;DHT22;47005;52.292;13.452;2023-02-16T09:35:31;5.20;99.90
21612;DHT22;47005;52.292;13.452;2023-02-16T09:37:57;5.20;99.90
21612;DHT22;47005;52.292;13.452;2023-02-16T09:40:23;5.20;99.90
21612;DHT22;47005;52.292;13.452;2023-02-16T09:45:40;5.30;99.90
21612;DHT22;47005;52.292;13.452;2023-02-16T09:50:53;5.40;99.90
21612;DHT22;47005;52.292;13.452;2023-02-16T09:53:38;5.50;99.90
21612;DHT22;47005;52.292;13.452;2023-02-16T09:56:16;5.60;99.90
21612;DHT22;47005;52.292;13.452;2023-02-16T09:58:52;5.60;99.90
21612;DHT22;47005;52.292;13.452;2023-02-16T10:07:30;5.80;99.90
21612;DHT22;47005;52.292;13.452;2023-02-16T10:09:57;5.90;99.90
21612;DHT22;47005;52.292;13.452;2023-02-16T10:12:31;5.90;99.90
21612;DHT22;47005;52.292;13.452;2023-02-16T10:15:04;5.90;99.90
21612;DHT22;47005;52.292;13.452;2023-02-16T10:22:31;6.10;99.90
21612;DHT22;47005;52.292;13.452;2023-02-16T10:25:01;6.20;99.90
21612;DHT22;47005;52.292;13.452;2023-02-16T10:27:36;6.30;99.90
21612;DHT22;47005;52.292;13.452;2023-02-16T10:32:42;6.40;99.90
21612;DHT22;47005;52.292;13.452;2023-02-16T10:35:14;6.50;99.90
21612;DHT22;47005;52.292;13.452;2023-02-16T10:41:06;6.60;99.90
21612;DHT22;47005;52.292;13.452;2023-02-16T10:43:49;6.60;99.90
21612;DHT22;47005;52.292;13.452;2023-02-16T10:46:32;6.70;99.90
21612;DHT22;47005;52.292;13.452;2023-02-16T10:48:59;6.80;99.90
21612;DHT22;47005;52.292;13.452;2023-02-16T10:51:35;6.80;99.90
21612;DHT22;47005;52.292;13.452;2023-02-16T10:54:43;6.90;99.90
21612;DHT22;47005;52.292;13.452;2023-02-16T10:57:05;6.90;99.90
21612;DHT22;47005;52.292;13.452;2023-02-16T10:59:42;7.00;99.90
21612;DHT22;47005;52.292;13.452;2023-02-16T11:04:54;7.10;99.90
21612;DHT22;47005;52.292;13.452;2023-02-16T11:07:25;7.10;99.90
21612;DHT22;47005;52.292;13.452;2023-02-16T11:09:54;7.20;99.90
21612;DHT22;47005;52.292;13.452;2023-02-16T11:12:27;7.20;99.90
21612;DHT22;47005;52.292;13.452;2023-02-16T11:15:00;7.30;99.90
21612;DHT22;47005;52.292;13.452;2023-02-16T11:17:29;7.40;99.90
21612;DHT22;47005;52.292;13.452;2023-02-16T11:20:04;7.40;99.90
21612;DHT22;47005;52.292;13.452;2023-02-16T11:22:38;7.50;99.90
21612;DHT22;47005;52.292;13.452;2023-02-16T11:25:20;7.50;99.90
21612;DHT22;47005;52.292;13.452;2023-02-16T11:28:04;7.60;99.90
21612;DHT22;47005;52.292;13.452;2023-02-16T11:30:32;7.60;99.90
21612;DHT22;47005;52.292;13.452;2023-02-16T11:33:00;7.70;99.90
21612;DHT22;47005;52.292;13.452;2023-02-16T11:35:29;7.70;99.90
21612;DHT22;47005;52.292;13.452;2023-02-16T11:37:56;7.80;99.90
21612;DHT22;47005;52.292;13.452;2023-02-16T11:40:32;7.80;99.90
21612;DHT22;47005;52.292;13.452;2023-02-16T11:42:59;7.90;99.90
21612;DHT22;47005;52.292;13.452;2023-02-16T11:45:32;7.90;99.90
21612;DHT22;47005;52.292;13.452;2023-02-16T11:48:09;7.90;99.90
21612;DHT22;47005;52.292;13.452;2023-02-16T11:50:40;7.90;99.90
21612;DHT22;47005;52.292;13.452;2023-02-16T11:53:25;8.00;99.90
21612;DHT22;47005;52.292;13.452;2023-02-16T11:58:37;8.10;99.90
21612;DHT22;47005;52.292;13.452;2023-02-16T12:01:22;8.20;99.90
21612;DHT22;47005;52.292;13.452;2023-02-16T12:12:27;8.40;99.90
21612;DHT22;47005;52.292;13.452;2023-02-16T12:15:02;8.40;99.90
21612;DHT22;47005;52.292;13.452;2023-02-16T12:20:40;8.50;99.90
21612;DHT22;47005;52.292;13.452;2023-02-16T12:31:47;8.70;99.90
21612;DHT22;47005;52.292;13.452;2023-02-16T12:37:17;8.70;99.90
21612;DHT22;47005;52.292;13.452;2023-02-16T12:42:42;8.80;99.90
21612;DHT22;47005;52.292;13.452;2023-02-16T12:45:17;8.80;99.90
21612;DHT22;47005;52.292;13.452;2023-02-16T12:47:51;8.90;99.90
21612;DHT22;47005;52.292;13.452;2023-02-16T12:50:26;8.90;99.90
21612;DHT22;47005;52.292;13.452;2023-02-16T12:55:30;9.00;99.90
21612;DHT22;47005;52.292;13.452;2023-02-16T12:58:37;9.10;99.90
21612;DHT22;47005;52.292;13.452;2023-02-16T13:01:09;9.20;99.90
21612;DHT22;47005;52.292;13.452;2023-02-16T13:03:58;9.20;99.90
21612;DHT22;47005;52.292;13.452;2023-02-16T13:17:52;9.50;99.90
21612;DHT22;47005;52.292;13.452;2023-02-16T13:20:21;9.50;99.90
21612;DHT22;47005;52.292;13.452;2023-02-16T13:25:47;9.60;99.90
21612;DHT22;47005;52.292;13.452;2023-02-16T13:28:43;9.70;99.90
21612;DHT22;47005;52.292;13.452;2023-02-16T13:45:23;10.00;99.90
21612;DHT22;47005;52.292;13.452;2023-02-16T13:47:52;10.10;99.90
21612;DHT22;47005;52.292;13.452;2023-02-16T13:52:48;10.20;99.90
21612;DHT22;47005;52.292;13.452;2023-02-16T14:00:32;10.30;99.90
21612;DHT22;47005;52.292;13.452;2023-02-16T14:05:54;10.30;99.90
21612;DHT22;47005;52.292;13.452;2023-02-16T14:08:39;10.30;99.90
21612;DHT22;47005;52.292;13.452;2023-02-16T14:11:07;10.30;99.90
21612;DHT22;47005;52.292;13.452;2023-02-16T14:16:07;10.40;99.90
21612;DHT22;47005;52.292;13.452;2023-02-16T14:21:23;10.50;99.90
21612;DHT22;47005;52.292;13.452;2023-02-16T14:23:56;10.50;99.90
21612;DHT22;47005;52.292;13.452;2023-02-16T14:26:23;10.50;99.90
21612;DHT22;47005;52.292;13.452;2023-02-16T14:31:22;10.60;99.90
21612;DHT22;47005;52.292;13.452;2023-02-16T14:36:26;10.60;99.70
21612;DHT22;47005;52.292;13.452;2023-02-16T14:38:54;10.60;99.90
21612;DHT22;47005;52.292;13.452;2023-02-16T14:44:12;10.70;99.90
21612;DHT22;47005;52.292;13.452;2023-02-16T14:47:10;10.70;99.90
21612;DHT22;47005;52.292;13.452;2023-02-16T15:03:24;10.70;99.90
21612;DHT22;47005;52.292;13.452;2023-02-16T15:08:21;10.70;99.90
21612;DHT22;47005;52.292;13.452;2023-02-16T15:10:49;10.70;99.90
21612;DHT22;47005;52.292;13.452;2023-02-16T15:13:26;10.70;99.90
21612;DHT22;47005;52.292;13.452;2023-02-16T15:15:55;10.70;99.90
21612;DHT22;47005;52.292;13.452;2023-02-16T15:18:23;10.70;99.90
21612;DHT22;47005;52.292;13.452;2023-02-16T15:20:51;10.80;99.90
21612;DHT22;47005;52.292;13.452;2023-02-16T15:23:33;10.80;99.90
21612;DHT22;47005;52.292;13.452;2023-02-16T15:26:05;10.80;99.90
21612;DHT22;47005;52.292;13.452;2023-02-16T15:28:37;10.80;99.90
21612;DHT22;47005;52.292;13.452;2023-02-16T15:31:15;10.80;99.90
21612;DHT22;47005;52.292;13.452;2023-02-16T15:33:57;10.80;99.90
21612;DHT22;47005;52.292;13.452;2023-02-16T15:36:31;10.80;99.90
21612;DHT22;47005;52.292;13.452;2023-02-16T15:39:03;10.80;99.90
21612;DHT22;47005;52.292;13.452;2023-02-16T15:41:37;10.80;99.90
21612;DHT22;47005;52.292;13.452;2023-02-16T15:44:05;10.80;99.90
21612;DHT22;47005;52.292;13.452;2023-02-16T15:51:38;10.70;99.90
21612;DHT22;47005;52.292;13.452;2023-02-16T15:54:25;10.70;99.90
21612;DHT22;47005;52.292;13.452;2023-02-16T15:56:57;10.70;99.90
21612;DHT22;47005;52.292;13.452;2023-02-16T15:59:37;10.70;99.90
21612;DHT22;47005;52.292;13.452;2023-02-16T16:04:44;10.60;99.90
21612;DHT22;47005;52.292;13.452;2023-02-16T16:07:16;10.60;99.90
21612;DHT22;47005;52.292;13.452;2023-02-16T16:09:43;10.60;99.90
21612;DHT22;47005;52.292;13.452;2023-02-16T16:12:15;10.50;99.90
21612;DHT22;47005;52.292;13.452;2023-02-16T16:17:18;10.50;99.90
21612;DHT22;47005;52.292;13.452;2023-02-16T16:19:45;10.40;99.90
21612;DHT22;47005;52.292;13.452;2023-02-16T16:22:29;10.40;99.90
21612;DHT22;47005;52.292;13.452;2023-02-16T16:24:57;10.40;99.90
21612;DHT22;47005;52.292;13.452;2023-02-16T16:27:34;10.40;99.90
21612;DHT22;47005;52.292;13.452;2023-02-16T16:33:12;10.30;99.90
21612;DHT22;47005;52.292;13.452;2023-02-16T16:35:46;10.30;99.90
21612;DHT22;47005;52.292;13.452;2023-02-16T16:38:27;10.20;99.90
21612;DHT22;47005;52.292;13.452;2023-02-16T16:40:58;10.20;99.90
21612;DHT22;47005;52.292;13.452;2023-02-16T16:43:36;10.20;99.90
21612;DHT22;47005;52.292;13.452;2023-02-16T16:46:12;10.10;99.90
21612;DHT22;47005;52.292;13.452;2023-02-16T16:48:44;10.10;99.90
21612;DHT22;47005;52.292;13.452;2023-02-16T16:53:59;10.00;99.90
21612;DHT22;47005;52.292;13.452;2023-02-16T16:56:30;10.00;99.90
21612;DHT22;47005;52.292;13.452;2023-02-16T16:58:57;10.00;99.90
21612;DHT22;47005;52.292;13.452;2023-02-16T17:01:24;9.90;99.90
21612;DHT22;47005;52.292;13.452;2023-02-16T17:03:50;9.90;99.90
21612;DHT22;47005;52.292;13.452;2023-02-16T17:06:17;9.80;99.90
21612;DHT22;47005;52.292;13.452;2023-02-16T17:08:44;9.80;99.90
21612;DHT22;47005;52.292;13.452;2023-02-16T17:11:26;9.80;99.90
21612;DHT22;47005;52.292;13.452;2023-02-16T17:13:53;9.80;99.90
21612;DHT22;47005;52.292;13.452;2023-02-16T17:16:28;9.80;99.90
21612;DHT22;47005;52.292;13.452;2023-02-16T17:18:55;9.70;99.90
21612;DHT22;47005;52.292;13.452;2023-02-16T17:21:21;9.70;99.90
21612;DHT22;47005;52.292;13.452;2023-02-16T17:23:46;9.70;99.90
21612;DHT22;47005;52.292;13.452;2023-02-16T17:26:12;9.70;99.90
21612;DHT22;47005;52.292;13.452;2023-02-16T17:28:38;9.60;99.90
21612;DHT22;47005;52.292;13.452;2023-02-16T17:31:05;9.60;99.90
21612;DHT22;47005;52.292;13.452;2023-02-16T17:33:31;9.60;99.90
21612;DHT22;47005;52.292;13.452;2023-02-16T17:35:57;9.60;99.90
21612;DHT22;47005;52.292;13.452;2023-02-16T17:38:23;9.60;99.90
21612;DHT22;47005;52.292;13.452;2023-02-16T17:40:51;9.50;99.90
21612;DHT22;47005;52.292;13.452;2023-02-16T17:43:18;9.50;99.90
21612;DHT22;47005;52.292;13.452;2023-02-16T17:45:44;9.50;99.90
21612;DHT22;47005;52.292;13.452;2023-02-16T17:48:18;9.50;99.90
21612;DHT22;47005;52.292;13.452;2023-02-16T17:50:44;9.50;99.90
21612;DHT22;47005;52.292;13.452;2023-02-16T17:53:18;9.50;99.90
21612;DHT22;47005;52.292;13.452;2023-02-16T17:55:46;9.40;99.90
21612;DHT22;47005;52.292;13.452;2023-02-16T17:58:13;9.40;99.90
21612;DHT22;47005;52.292;13.452;2023-02-16T18:00:40;9.40;99.90
21612;DHT22;47005;52.292;13.452;2023-02-16T18:03:06;9.40;99.90
21612;DHT22;47005;52.292;13.452;2023-02-16T18:05:33;9.40;99.90
21612;DHT22;47005;52.292;13.452;2023-02-16T18:07:58;9.40;99.90
21612;DHT22;47005;52.292;13.452;2023-02-16T18:10:36;9.40;99.90
21612;DHT22;47005;52.292;13.452;2023-02-16T18:13:06;9.40;99.90
21612;DHT22;47005;52.292;13.452;2023-02-16T18:15:32;9.40;99.90
21612;DHT22;47005;52.292;13.452;2023-02-16T18:17:58;9.40;99.90
21612;DHT22;47005;52.292;13.452;2023-02-16T18:20:24;9.40;99.90
21612;DHT22;47005;52.292;13.452;2023-02-16T18:22:51;9.40;99.90
21612;DHT22;47005;52.292;13.452;2023-02-16T18:25:17;9.40;99.90
21612;DHT22;47005;52.292;13.452;2023-02-16T18:27:43;9.40;99.90
21612;DHT22;47005;52.292;13.452;2023-02-16T18:30:09;9.40;99.90
21612;DHT22;47005;52.292;13.452;2023-02-16T18:32:36;9.40;99.90
21612;DHT22;47005;52.292;13.452;2023-02-16T18:35:01;9.40;99.90
21612;DHT22;47005;52.292;13.452;2023-02-16T18:37:28;9.40;99.90
21612;DHT22;47005;52.292;13.452;2023-02-16T18:39:54;9.40;99.90
21612;DHT22;47005;52.292;13.452;2023-02-16T18:42:20;9.50;99.90
21612;DHT22;47005;52.292;13.452;2023-02-16T18:44:45;9.50;99.90
21612;DHT22;47005;52.292;13.452;2023-02-16T18:47:12;9.40;99.90